»·PEaware :: AAL2471 KLAX-KMIA

AAL2471 :: KLAX-KMIA

FLIGHT INFORMATION

Flight Status: Arrived
Operator:
American Airlines
More flights by this operator :: More flights under this callsign
Pilot: Drew Leevy (13237)
Aircraft: BOEING 767-300
(B763)
More flights by this aircraft type
Origin: KLAX Los Angeles Intl
United States
Destination: KMIA Miami Intl
United States
More flights between these airports :: More routes between these airports
Route: DOTSS1 CLEEE PKE J78 DRK J78 ABQ J72 TXO FUZ J58 FOSIN J58 HRV Q105 BLVNS Q102 BAGGS SSCOT3
File this flight plan on PilotEdge
Remarks: Sample flight plan
Altitude:
(Current/Filed)
35,000ft
Speed:
(Current/Filed)
550kts
Departed: 08-Jun-17 02:20 AM
Arrived: 08-Jun-17 11:43 AM
Distance/Time
Traveled:
2031nm/9:22
Distance/Time
To Go:
Arrived

Flight Plot

Page will automatically refresh every two minutes.

Flight plan parsing failed; only flown route is shown


Map Options




Map Legend


Flown Route
Filed Route
Departure Airport
Arrival Airport
Navaid (VOR, NDB)
Fix

Horizontal Profiles

Position Reports

Time Latitude Longitude Heading Altitude Ground
Speed
08-Jun-17 02:02 33.939610 -118.406541 353 136ft 0kts
08-Jun-17 02:03 33.939610 -118.406541 353 136ft 0kts
08-Jun-17 02:04 33.939611 -118.406541 353 136ft 0kts
08-Jun-17 02:05 33.939611 -118.406541 353 136ft 0kts
08-Jun-17 02:06 33.939611 -118.406541 353 136ft 0kts
08-Jun-17 02:07 33.939611 -118.406541 353 136ft 0kts
08-Jun-17 02:08 33.939611 -118.406541 353 136ft 0kts
08-Jun-17 02:09 33.939611 -118.406541 353 136ft 0kts
08-Jun-17 02:10 33.939611 -118.406541 353 136ft 0kts
08-Jun-17 02:11 33.939611 -118.406541 353 136ft 0kts
08-Jun-17 02:12 33.939611 -118.406541 353 136ft 0kts
08-Jun-17 02:13 33.939069 -118.406597 40 136ft 2kts
08-Jun-17 02:14 33.938868 -118.407042 88 136ft 0kts
08-Jun-17 02:15 33.938868 -118.407042 88 136ft 0kts
08-Jun-17 02:16 33.938868 -118.407042 88 136ft 0kts
08-Jun-17 02:17 33.938420 -118.405136 127 136ft 8kts
08-Jun-17 02:18 33.938785 -118.399921 82 136ft 25kts
08-Jun-17 02:19 33.939594 -118.392082 82 136ft 23kts
08-Jun-17 02:20 33.940334 -118.384752 83 136ft 25kts
08-Jun-17 02:21 33.939786 -118.380620 264 136ft 10kts
08-Jun-17 02:22 33.937057 -118.410927 265 607ft 193kts
08-Jun-17 02:23 33.920843 -118.473769 232 3618ft 235kts
08-Jun-17 02:24 33.879655 -118.534778 228 7378ft 244kts
08-Jun-17 02:25 33.818281 -118.552456 173 10540ft 272kts
08-Jun-17 02:26 33.731853 -118.529169 164 12547ft 352kts
08-Jun-17 02:27 33.669664 -118.434038 112 15874ft 406kts
08-Jun-17 02:28 33.644340 -118.298683 94 18677ft 442kts
08-Jun-17 02:29 33.644643 -118.148623 94 21393ft 462kts
08-Jun-17 02:30 33.644526 -117.991424 94 23841ft 481kts
08-Jun-17 02:31 33.644233 -117.828362 93 26042ft 499kts
08-Jun-17 02:32 33.669980 -117.661606 79 28010ft 522kts
08-Jun-17 02:33 33.702707 -117.490241 78 29856ft 537kts
08-Jun-17 02:34 33.735247 -117.318954 78 31925ft 541kts
08-Jun-17 02:35 33.749053 -117.142248 93 33975ft 532kts
08-Jun-17 02:36 33.745848 -116.965898 93 35028ft 533kts
08-Jun-17 02:37 33.741950 -116.789630 93 34891ft 527kts
08-Jun-17 02:38 33.737776 -116.613807 93 34891ft 528kts
08-Jun-17 02:39 33.733358 -116.438176 93 34894ft 528kts
08-Jun-17 02:40 33.728764 -116.265122 94 34829ft 526kts
08-Jun-17 02:41 33.726316 -116.089862 85 34826ft 529kts
08-Jun-17 02:42 33.766393 -115.919302 71 34835ft 531kts
08-Jun-17 02:43 33.812504 -115.752049 71 34865ft 530kts
08-Jun-17 02:44 33.858784 -115.583705 71 35000ft 531kts
08-Jun-17 02:45 33.904800 -115.415337 71 35003ft 530kts
08-Jun-17 02:46 33.948612 -115.254097 71 34993ft 530kts
08-Jun-17 02:47 33.994190 -115.085340 72 34864ft 531kts
08-Jun-17 02:48 34.039442 -114.916749 72 34863ft 531kts
08-Jun-17 02:49 34.084461 -114.747988 72 34864ft 530kts
08-Jun-17 02:50 34.129881 -114.583470 70 34863ft 530kts
08-Jun-17 02:51 34.177298 -114.415292 70 34864ft 530kts
08-Jun-17 02:52 34.221658 -114.256982 71 34854ft 530kts
08-Jun-17 02:53 34.268601 -114.088478 71 34857ft 530kts
08-Jun-17 02:54 34.315361 -113.919656 71 34859ft 530kts
08-Jun-17 02:55 34.361767 -113.751098 71 34861ft 530kts
08-Jun-17 02:56 34.407860 -113.582648 71 34865ft 530kts
08-Jun-17 02:57 34.453731 -113.413979 71 35028ft 530kts
08-Jun-17 02:58 34.498678 -113.247693 71 35154ft 529kts
08-Jun-17 02:59 34.544231 -113.078127 71 35155ft 529kts
08-Jun-17 03:00 34.589363 -112.909072 71 35157ft 529kts
08-Jun-17 03:01 34.634340 -112.739537 71 35159ft 528kts
08-Jun-17 03:02 34.679151 -112.569551 71 35162ft 528kts
08-Jun-17 03:03 34.709082 -112.396010 84 35170ft 528kts
08-Jun-17 03:04 34.723966 -112.221003 85 35154ft 527kts
08-Jun-17 03:05 34.738274 -112.044399 85 35157ft 527kts
08-Jun-17 03:06 34.752326 -111.867383 85 35158ft 527kts
08-Jun-17 03:07 34.766128 -111.690207 85 35161ft 527kts
08-Jun-17 03:08 34.779630 -111.513542 85 35163ft 527kts
08-Jun-17 03:09 34.792755 -111.338485 86 35162ft 526kts
08-Jun-17 03:10 34.805785 -111.161244 86 35156ft 526kts
08-Jun-17 03:11 34.818522 -110.984409 86 35157ft 526kts
08-Jun-17 03:12 34.831046 -110.806930 86 35159ft 526kts
08-Jun-17 03:13 34.843260 -110.630136 86 35162ft 526kts
08-Jun-17 03:14 34.855249 -110.452732 85 35158ft 527kts
08-Jun-17 03:15 34.867090 -110.273862 86 35148ft 534kts
08-Jun-17 03:16 34.878691 -110.094456 86 35157ft 534kts
08-Jun-17 03:17 34.890041 -109.914784 86 35212ft 533kts
08-Jun-17 03:18 34.901112 -109.735309 86 35214ft 533kts
08-Jun-17 03:19 34.911971 -109.554878 86 35217ft 533kts
08-Jun-17 03:20 34.922526 -109.375066 86 35219ft 533kts
08-Jun-17 03:21 34.932662 -109.198036 86 35209ft 533kts
08-Jun-17 03:22 34.942695 -109.018061 86 35265ft 533kts
08-Jun-17 03:23 34.952463 -108.838045 86 35267ft 533kts
08-Jun-17 03:24 34.961936 -108.658524 86 35270ft 533kts
08-Jun-17 03:25 34.971138 -108.479112 86 35299ft 532kts
08-Jun-17 03:26 34.979872 -108.303919 87 35287ft 532kts
08-Jun-17 03:27 34.988561 -108.124288 87 35291ft 532kts
08-Jun-17 03:28 34.996999 -107.944263 87 35293ft 532kts
08-Jun-17 03:29 35.005146 -107.764781 87 35295ft 532kts
08-Jun-17 03:30 35.012950 -107.585178 84 35303ft 527kts
08-Jun-17 03:31 35.020513 -107.408758 84 35299ft 523kts
08-Jun-17 03:32 35.027724 -107.233149 84 35232ft 522kts
08-Jun-17 03:33 35.034678 -107.056876 84 35248ft 515kts
08-Jun-17 03:34 35.041428 -106.880095 84 35233ft 523kts
08-Jun-17 03:35 35.029747 -106.704277 96 35212ft 526kts
08-Jun-17 03:36 35.008618 -106.528271 96 35213ft 525kts
08-Jun-17 03:37 34.986885 -106.352804 96 35242ft 524kts
08-Jun-17 03:38 34.965032 -106.178627 97 35259ft 524kts
08-Jun-17 03:39 34.942826 -106.003856 97 35262ft 524kts
08-Jun-17 03:40 34.920340 -105.828980 97 35291ft 524kts
08-Jun-17 03:41 34.897608 -105.654364 97 35313ft 518kts
08-Jun-17 03:42 34.875669 -105.487489 96 35297ft 497kts
08-Jun-17 03:43 34.853698 -105.322218 97 35286ft 498kts
08-Jun-17 03:44 34.831371 -105.156113 97 35289ft 499kts
08-Jun-17 03:45 34.808870 -104.990478 97 35289ft 499kts
08-Jun-17 03:46 34.786123 -104.824767 97 35291ft 499kts
08-Jun-17 03:47 34.763146 -104.659120 97 35291ft 499kts
08-Jun-17 03:48 34.739947 -104.493566 97 35157ft 499kts
08-Jun-17 03:49 34.716569 -104.328421 98 35102ft 499kts
08-Jun-17 03:50 34.692873 -104.162710 98 35100ft 499kts
08-Jun-17 03:51 34.668889 -103.996654 98 35101ft 499kts
08-Jun-17 03:52 34.644690 -103.830725 98 35102ft 499kts
08-Jun-17 03:53 34.620289 -103.665130 98 35103ft 499kts
08-Jun-17 03:54 34.595747 -103.500148 98 35114ft 499kts
08-Jun-17 03:55 34.571086 -103.335924 98 35158ft 500kts
08-Jun-17 03:56 34.546011 -103.170538 98 35155ft 499kts
08-Jun-17 03:57 34.524983 -103.033046 98 35156ft 499kts
08-Jun-17 03:58 34.499468 -102.867683 99 35157ft 499kts
08-Jun-17 03:59 34.453976 -102.679552 105 35131ft 501kts
08-Jun-17 04:00 34.419548 -102.545827 105 35132ft 501kts
08-Jun-17 04:01 34.378010 -102.385708 105 35132ft 501kts
08-Jun-17 04:02 34.329385 -102.199435 106 35102ft 501kts
08-Jun-17 04:03 34.287191 -102.038875 106 35103ft 501kts
08-Jun-17 04:04 34.251909 -101.905346 106 35104ft 501kts
08-Jun-17 04:05 34.209413 -101.745377 106 35105ft 501kts
08-Jun-17 04:06 34.166619 -101.585238 106 35106ft 501kts
08-Jun-17 04:07 34.123718 -101.425625 106 35107ft 501kts
08-Jun-17 04:08 34.080863 -101.267125 106 35103ft 501kts
08-Jun-17 04:09 34.037581 -101.107970 106 35104ft 501kts
08-Jun-17 04:10 33.994058 -100.948823 106 35105ft 501kts
08-Jun-17 04:11 33.950450 -100.790268 106 35106ft 501kts
08-Jun-17 04:12 33.906482 -100.631321 106 35107ft 501kts
08-Jun-17 04:13 33.862640 -100.473743 106 35103ft 501kts
08-Jun-17 04:14 33.818463 -100.315828 107 35098ft 502kts
08-Jun-17 04:15 33.773877 -100.157337 107 35100ft 502kts
08-Jun-17 04:16 33.729113 -99.999090 107 35101ft 502kts
08-Jun-17 04:17 33.684184 -99.841153 107 35075ft 501kts
08-Jun-17 04:18 33.639020 -99.683254 107 35076ft 502kts
08-Jun-17 04:19 33.593506 -99.525001 107 35077ft 502kts
08-Jun-17 04:20 33.547869 -99.367172 107 35079ft 502kts
08-Jun-17 04:21 33.503497 -99.214563 107 35074ft 502kts
08-Jun-17 04:22 33.457655 -99.057722 107 35075ft 502kts
08-Jun-17 04:23 33.411390 -98.900280 107 35076ft 502kts
08-Jun-17 04:24 33.365087 -98.743546 107 35050ft 502kts
08-Jun-17 04:25 33.318388 -98.586308 107 35051ft 502kts
08-Jun-17 04:26 33.271664 -98.429819 107 35052ft 502kts
08-Jun-17 04:27 33.227912 -98.284029 108 35075ft 502kts
08-Jun-17 04:28 33.180614 -98.127221 108 35076ft 502kts
08-Jun-17 04:29 33.133244 -97.970987 108 35077ft 502kts
08-Jun-17 04:30 33.085791 -97.815318 108 35079ft 502kts
08-Jun-17 04:31 33.038082 -97.659544 108 35080ft 502kts
08-Jun-17 04:32 32.990257 -97.504223 108 35072ft 502kts
08-Jun-17 04:33 32.941997 -97.348295 108 35055ft 502kts
08-Jun-17 04:34 32.895783 -97.199732 108 35048ft 503kts
08-Jun-17 04:35 32.846082 -97.046023 109 35046ft 503kts
08-Jun-17 04:36 32.796261 -96.893497 109 35047ft 503kts
08-Jun-17 04:37 32.746092 -96.740633 109 35048ft 503kts
08-Jun-17 04:38 32.695447 -96.587063 109 35049ft 503kts
08-Jun-17 04:39 32.644463 -96.433207 109 35050ft 503kts
08-Jun-17 04:40 32.593668 -96.280649 110 35046ft 503kts
08-Jun-17 04:41 32.542190 -96.126783 110 35047ft 503kts
08-Jun-17 04:42 32.490596 -95.973298 110 35049ft 503kts
08-Jun-17 04:43 32.438714 -95.819703 110 35049ft 503kts
08-Jun-17 04:44 32.386851 -95.666877 110 35050ft 503kts
08-Jun-17 04:45 32.334641 -95.513754 110 35052ft 503kts
08-Jun-17 04:46 32.282316 -95.361005 110 35053ft 503kts
08-Jun-17 04:47 32.230264 -95.209773 110 35049ft 503kts
08-Jun-17 04:48 32.177662 -95.057632 110 35048ft 503kts
08-Jun-17 04:49 32.124669 -94.905068 110 35051ft 503kts
08-Jun-17 04:50 32.071722 -94.753334 110 35033ft 504kts
08-Jun-17 04:51 32.018448 -94.601358 110 35026ft 503kts
08-Jun-17 04:52 31.965027 -94.449652 110 35055ft 503kts
08-Jun-17 04:53 31.912079 -94.299976 111 35049ft 503kts
08-Jun-17 04:54 31.858639 -94.149720 111 35045ft 503kts
08-Jun-17 04:55 31.804489 -93.998314 111 35046ft 503kts
08-Jun-17 04:56 31.750404 -93.847248 111 35047ft 503kts
08-Jun-17 04:57 31.696141 -93.696773 111 35021ft 503kts
08-Jun-17 04:58 31.641421 -93.545653 111 35023ft 503kts
08-Jun-17 04:59 31.587038 -93.395996 111 35011ft 503kts
08-Jun-17 05:00 31.533110 -93.248232 111 35020ft 503kts
08-Jun-17 05:01 31.467821 -93.103713 119 35022ft 505kts
08-Jun-17 05:02 31.396941 -92.962279 119 35022ft 505kts
08-Jun-17 05:03 31.325332 -92.820138 121 34998ft 512kts
08-Jun-17 05:04 31.253321 -92.677828 121 34998ft 510kts
08-Jun-17 05:05 31.180841 -92.535065 121 35001ft 513kts
08-Jun-17 05:06 31.108351 -92.392838 122 35001ft 512kts
08-Jun-17 05:07 31.048381 -92.275569 122 35019ft 512kts
08-Jun-17 05:08 30.975572 -92.133668 122 34999ft 512kts
08-Jun-17 05:09 30.902705 -91.992157 122 34996ft 512kts
08-Jun-17 05:10 30.833615 -91.858455 122 34995ft 512kts
08-Jun-17 05:11 30.760179 -91.716858 122 34996ft 512kts
08-Jun-17 05:12 30.686810 -91.575884 122 34997ft 512kts
08-Jun-17 05:13 30.613303 -91.435158 122 34999ft 512kts
08-Jun-17 05:14 30.540292 -91.295874 123 34990ft 511kts
08-Jun-17 05:15 30.466604 -91.155804 123 34993ft 512kts
08-Jun-17 05:16 30.392420 -91.015285 123 34994ft 512kts
08-Jun-17 05:17 30.318462 -90.875689 123 35174ft 511kts
08-Jun-17 05:18 30.244239 -90.736089 123 35264ft 513kts
08-Jun-17 05:19 30.170303 -90.597500 123 35146ft 510kts
08-Jun-17 05:20 30.095581 -90.457933 123 34979ft 511kts
08-Jun-17 05:21 30.021345 -90.319752 124 34965ft 511kts
08-Jun-17 05:22 29.946521 -90.180971 124 34966ft 511kts
08-Jun-17 05:23 29.871299 -90.041920 124 34966ft 511kts
08-Jun-17 05:24 29.784958 -89.914246 132 34968ft 509kts
08-Jun-17 05:25 29.694009 -89.790046 132 34969ft 508kts
08-Jun-17 05:26 29.603026 -89.666484 133 34970ft 508kts
08-Jun-17 05:27 29.512071 -89.543353 133 34998ft 508kts
08-Jun-17 05:28 29.421051 -89.420511 133 35000ft 508kts
08-Jun-17 05:29 29.330077 -89.298093 133 34935ft 506kts
08-Jun-17 05:30 29.238987 -89.175903 133 34938ft 507kts
08-Jun-17 05:31 29.147251 -89.053208 133 34940ft 507kts
08-Jun-17 05:32 29.055838 -88.931305 133 34941ft 507kts
08-Jun-17 05:33 28.964102 -88.809343 133 34942ft 507kts
08-Jun-17 05:34 28.872817 -88.688178 133 34942ft 507kts
08-Jun-17 05:35 28.781987 -88.566264 133 34944ft 507kts
08-Jun-17 05:36 28.690554 -88.443944 133 34945ft 507kts
08-Jun-17 05:37 28.600427 -88.323718 133 34936ft 507kts
08-Jun-17 05:38 28.508988 -88.202105 133 34938ft 507kts
08-Jun-17 05:39 28.417779 -88.081144 133 34939ft 506kts
08-Jun-17 05:40 28.355009 -87.937888 110 34947ft 515kts
08-Jun-17 05:41 28.310211 -87.784256 109 34942ft 514kts
08-Jun-17 05:42 28.265491 -87.630287 109 34944ft 514kts
08-Jun-17 05:43 28.220662 -87.476585 109 34945ft 514kts
08-Jun-17 05:44 28.176337 -87.325277 110 34938ft 514kts
08-Jun-17 05:45 28.131165 -87.171840 110 34938ft 514kts
08-Jun-17 05:46 28.086402 -87.020431 110 34935ft 503kts
08-Jun-17 05:47 28.041649 -86.869789 110 34940ft 505kts
08-Jun-17 05:48 27.997197 -86.719378 109 34942ft 506kts
08-Jun-17 05:49 27.953582 -86.568630 109 34943ft 506kts
08-Jun-17 05:50 27.909706 -86.417721 110 34944ft 506kts
08-Jun-17 05:51 27.865753 -86.267255 110 34938ft 505kts
08-Jun-17 05:52 27.821700 -86.117136 110 34882ft 506kts
08-Jun-17 05:53 27.777379 -85.966749 110 34887ft 506kts
08-Jun-17 05:54 27.732876 -85.816429 110 34888ft 506kts
08-Jun-17 05:55 27.688154 -85.666043 110 34889ft 506kts
08-Jun-17 05:56 27.643432 -85.516321 110 34890ft 506kts
08-Jun-17 05:57 27.598362 -85.366064 110 34891ft 506kts
08-Jun-17 05:58 27.568747 -85.211112 102 34884ft 508kts
08-Jun-17 05:59 27.541485 -85.055306 102 34832ft 508kts
08-Jun-17 06:00 27.514039 -84.899272 102 34833ft 509kts
08-Jun-17 06:01 27.486390 -84.743147 102 34834ft 509kts
08-Jun-17 06:02 27.458615 -84.587416 103 34835ft 509kts
08-Jun-17 06:03 27.430648 -84.431485 105 34840ft 514kts
08-Jun-17 06:04 27.402802 -84.277615 105 34825ft 514kts
08-Jun-17 06:05 27.374061 -84.119705 105 34830ft 515kts
08-Jun-17 06:06 27.345338 -83.962904 105 34831ft 515kts
08-Jun-17 06:07 27.316346 -83.805692 105 34833ft 515kts
08-Jun-17 06:08 27.287145 -83.648362 105 34835ft 515kts
08-Jun-17 06:09 27.257708 -83.490805 105 34836ft 515kts
08-Jun-17 06:10 27.230718 -83.347242 105 34837ft 515kts
08-Jun-17 06:11 27.205344 -83.213065 105 34828ft 514kts
08-Jun-17 06:12 27.175510 -83.056213 105 34829ft 514kts
08-Jun-17 06:13 27.144564 -82.899833 110 34829ft 511kts
08-Jun-17 06:14 27.071368 -82.770572 141 34856ft 489kts
08-Jun-17 06:15 26.974439 -82.663709 141 34859ft 490kts
08-Jun-17 06:16 26.877670 -82.556835 141 34866ft 490kts
08-Jun-17 06:17 26.780956 -82.450270 140 34866ft 490kts
08-Jun-17 06:18 26.772667 -82.441149 140 34866ft 490kts
08-Jun-17 06:19 26.772667 -82.441149 140 34866ft 490kts
08-Jun-17 06:20 26.772667 -82.441149 140 34866ft 490kts
08-Jun-17 06:21 26.772667 -82.441149 140 34866ft 490kts
08-Jun-17 06:22 26.772667 -82.441149 140 34866ft 490kts
08-Jun-17 06:23 26.772667 -82.441149 140 34866ft 490kts
08-Jun-17 06:24 26.772667 -82.441149 140 34866ft 490kts
08-Jun-17 06:25 26.772667 -82.441149 140 34866ft 490kts
08-Jun-17 06:26 26.772667 -82.441149 140 34866ft 490kts
08-Jun-17 06:27 26.772667 -82.441149 140 34866ft 490kts
08-Jun-17 06:28 26.772667 -82.441149 140 34866ft 490kts
08-Jun-17 06:29 26.772667 -82.441149 140 34866ft 490kts
08-Jun-17 06:30 26.772667 -82.441149 140 34866ft 490kts
08-Jun-17 06:31 26.772667 -82.441149 140 34866ft 490kts
08-Jun-17 06:32 26.772667 -82.441149 140 34866ft 490kts
08-Jun-17 06:33 26.772667 -82.441149 140 34866ft 490kts
08-Jun-17 06:34 26.772667 -82.441149 140 34866ft 490kts
08-Jun-17 06:35 26.772667 -82.441149 140 34866ft 490kts
08-Jun-17 06:36 26.772667 -82.441149 140 34866ft 490kts
08-Jun-17 06:37 26.772667 -82.441149 140 34866ft 490kts
08-Jun-17 06:38 26.772667 -82.441149 140 34866ft 490kts
08-Jun-17 06:39 26.772667 -82.441149 140 34866ft 490kts
08-Jun-17 06:40 26.772667 -82.441149 140 34866ft 490kts
08-Jun-17 06:41 26.772667 -82.441149 140 34866ft 490kts
08-Jun-17 06:42 26.772667 -82.441149 140 34866ft 490kts
08-Jun-17 06:43 26.772667 -82.441149 140 34866ft 490kts
08-Jun-17 06:44 26.772667 -82.441149 140 34866ft 490kts
08-Jun-17 06:45 26.772667 -82.441149 140 34866ft 490kts
08-Jun-17 06:46 26.772667 -82.441149 140 34866ft 490kts
08-Jun-17 06:47 26.772667 -82.441149 140 34866ft 490kts
08-Jun-17 06:48 26.772667 -82.441149 140 34866ft 490kts
08-Jun-17 06:49 26.772667 -82.441149 140 34866ft 490kts
08-Jun-17 06:50 26.772667 -82.441149 140 34866ft 490kts
08-Jun-17 06:51 26.772667 -82.441149 140 34866ft 490kts
08-Jun-17 06:52 26.772667 -82.441149 140 34866ft 490kts
08-Jun-17 06:53 26.772667 -82.441149 140 34866ft 490kts
08-Jun-17 06:54 26.772667 -82.441149 140 34866ft 490kts
08-Jun-17 06:55 26.772667 -82.441149 140 34866ft 490kts
08-Jun-17 06:56 26.772667 -82.441149 140 34866ft 490kts
08-Jun-17 06:57 26.772667 -82.441149 140 34866ft 490kts
08-Jun-17 06:58 26.772667 -82.441149 140 34866ft 490kts
08-Jun-17 06:59 26.772667 -82.441149 140 34866ft 490kts
08-Jun-17 07:00 26.772667 -82.441149 140 34866ft 490kts
08-Jun-17 07:01 26.772667 -82.441149 140 34866ft 490kts
08-Jun-17 07:02 26.772667 -82.441149 140 34866ft 490kts
08-Jun-17 07:03 26.772667 -82.441149 140 34866ft 490kts
08-Jun-17 07:04 26.772667 -82.441149 140 34866ft 490kts
08-Jun-17 07:05 26.772667 -82.441149 140 34866ft 490kts
08-Jun-17 07:06 26.772667 -82.441149 140 34866ft 490kts
08-Jun-17 07:07 26.772667 -82.441149 140 34866ft 490kts
08-Jun-17 07:08 26.772667 -82.441149 140 34866ft 490kts
08-Jun-17 07:09 26.772667 -82.441149 140 34866ft 490kts
08-Jun-17 07:10 26.772667 -82.441149 140 34866ft 490kts
08-Jun-17 07:11 26.772667 -82.441149 140 34866ft 490kts
08-Jun-17 07:12 26.772667 -82.441149 140 34866ft 490kts
08-Jun-17 07:13 26.772667 -82.441149 140 34866ft 490kts
08-Jun-17 07:14 26.772667 -82.441149 140 34866ft 490kts
08-Jun-17 07:15 26.772667 -82.441149 140 34866ft 490kts
08-Jun-17 07:16 26.772667 -82.441149 140 34866ft 490kts
08-Jun-17 07:17 26.772667 -82.441149 140 34866ft 490kts
08-Jun-17 07:18 26.772667 -82.441149 140 34866ft 490kts
08-Jun-17 07:19 26.772667 -82.441149 140 34866ft 490kts
08-Jun-17 07:20 26.772667 -82.441149 140 34866ft 490kts
08-Jun-17 07:21 26.772667 -82.441149 140 34866ft 490kts
08-Jun-17 07:22 26.772667 -82.441149 140 34866ft 490kts
08-Jun-17 07:23 26.772667 -82.441149 140 34866ft 490kts
08-Jun-17 07:24 26.772667 -82.441149 140 34866ft 490kts
08-Jun-17 07:25 26.772667 -82.441149 140 34866ft 490kts
08-Jun-17 07:26 26.772667 -82.441149 140 34866ft 490kts
08-Jun-17 07:27 26.772667 -82.441149 140 34866ft 490kts
08-Jun-17 07:28 26.772667 -82.441149 140 34866ft 490kts
08-Jun-17 07:29 26.772667 -82.441149 140 34866ft 490kts
08-Jun-17 07:30 26.772667 -82.441149 140 34866ft 490kts
08-Jun-17 07:31 26.772667 -82.441149 140 34866ft 490kts
08-Jun-17 07:32 26.772667 -82.441149 140 34866ft 490kts
08-Jun-17 07:33 26.772667 -82.441149 140 34866ft 490kts
08-Jun-17 07:34 26.772667 -82.441149 140 34866ft 490kts
08-Jun-17 07:35 26.772667 -82.441149 140 34866ft 490kts
08-Jun-17 07:36 26.772667 -82.441149 140 34866ft 490kts
08-Jun-17 07:37 26.772667 -82.441149 140 34866ft 490kts
08-Jun-17 07:38 26.772667 -82.441149 140 34866ft 490kts
08-Jun-17 07:39 26.772667 -82.441149 140 34866ft 490kts
08-Jun-17 07:40 26.772667 -82.441149 140 34866ft 490kts
08-Jun-17 07:41 26.772667 -82.441149 140 34866ft 490kts
08-Jun-17 07:42 26.772667 -82.441149 140 34866ft 490kts
08-Jun-17 07:43 26.772667 -82.441149 140 34866ft 490kts
08-Jun-17 07:44 26.772667 -82.441149 140 34866ft 490kts
08-Jun-17 07:45 26.772667 -82.441149 140 34866ft 490kts
08-Jun-17 07:46 26.772667 -82.441149 140 34866ft 490kts
08-Jun-17 07:47 26.772667 -82.441149 140 34866ft 490kts
08-Jun-17 07:48 26.772667 -82.441149 140 34866ft 490kts
08-Jun-17 07:49 26.772667 -82.441149 140 34866ft 490kts
08-Jun-17 07:50 26.772667 -82.441149 140 34866ft 490kts
08-Jun-17 07:51 26.772667 -82.441149 140 34866ft 490kts
08-Jun-17 07:52 26.772667 -82.441149 140 34866ft 490kts
08-Jun-17 07:53 26.772667 -82.441149 140 34866ft 490kts
08-Jun-17 07:54 26.772667 -82.441149 140 34866ft 490kts
08-Jun-17 07:55 26.772667 -82.441149 140 34866ft 490kts
08-Jun-17 07:56 26.772667 -82.441149 140 34866ft 490kts
08-Jun-17 07:57 26.772667 -82.441149 140 34866ft 490kts
08-Jun-17 07:58 26.772667 -82.441149 140 34866ft 490kts
08-Jun-17 07:59 26.772667 -82.441149 140 34866ft 490kts
08-Jun-17 08:00 26.772667 -82.441149 140 34866ft 490kts
08-Jun-17 08:01 26.772667 -82.441149 140 34866ft 490kts
08-Jun-17 08:02 26.772667 -82.441149 140 34866ft 490kts
08-Jun-17 08:03 26.772667 -82.441149 140 34866ft 490kts
08-Jun-17 08:04 26.772667 -82.441149 140 34866ft 490kts
08-Jun-17 08:05 26.772667 -82.441149 140 34866ft 490kts
08-Jun-17 08:06 26.772667 -82.441149 140 34866ft 490kts
08-Jun-17 08:07 26.772667 -82.441149 140 34866ft 490kts
08-Jun-17 08:08 26.772667 -82.441149 140 34866ft 490kts
08-Jun-17 08:09 26.772667 -82.441149 140 34866ft 490kts
08-Jun-17 08:10 26.772667 -82.441149 140 34866ft 490kts
08-Jun-17 08:11 26.772667 -82.441149 140 34866ft 490kts
08-Jun-17 08:12 26.772667 -82.441149 140 34866ft 490kts
08-Jun-17 08:13 26.772667 -82.441149 140 34866ft 490kts
08-Jun-17 08:14 26.772667 -82.441149 140 34866ft 490kts
08-Jun-17 08:15 26.772667 -82.441149 140 34866ft 490kts
08-Jun-17 08:16 26.772667 -82.441149 140 34866ft 490kts
08-Jun-17 08:17 26.772667 -82.441149 140 34866ft 490kts
08-Jun-17 08:18 26.772667 -82.441149 140 34866ft 490kts
08-Jun-17 08:19 26.772667 -82.441149 140 34866ft 490kts
08-Jun-17 08:20 26.772667 -82.441149 140 34866ft 490kts
08-Jun-17 08:21 26.772667 -82.441149 140 34866ft 490kts
08-Jun-17 08:22 26.772667 -82.441149 140 34866ft 490kts
08-Jun-17 08:23 26.772667 -82.441149 140 34866ft 490kts
08-Jun-17 08:24 26.772667 -82.441149 140 34866ft 490kts
08-Jun-17 08:25 26.772667 -82.441149 140 34866ft 490kts
08-Jun-17 08:26 26.772667 -82.441149 140 34866ft 490kts
08-Jun-17 08:27 26.772667 -82.441149 140 34866ft 490kts
08-Jun-17 08:28 26.772667 -82.441149 140 34866ft 490kts
08-Jun-17 08:29 26.772667 -82.441149 140 34866ft 490kts
08-Jun-17 08:30 26.772667 -82.441149 140 34866ft 490kts
08-Jun-17 08:31 26.772667 -82.441149 140 34866ft 490kts
08-Jun-17 08:32 26.772667 -82.441149 140 34866ft 490kts
08-Jun-17 08:33 26.772667 -82.441149 140 34866ft 490kts
08-Jun-17 08:34 26.772667 -82.441149 140 34866ft 490kts
08-Jun-17 08:35 26.772667 -82.441149 140 34866ft 490kts
08-Jun-17 08:36 26.772667 -82.441149 140 34866ft 490kts
08-Jun-17 08:37 26.772667 -82.441149 140 34866ft 490kts
08-Jun-17 08:38 26.772667 -82.441149 140 34866ft 490kts
08-Jun-17 08:39 26.772667 -82.441149 140 34866ft 490kts
08-Jun-17 08:40 26.772667 -82.441149 140 34866ft 490kts
08-Jun-17 08:41 26.772667 -82.441149 140 34866ft 490kts
08-Jun-17 08:42 26.772667 -82.441149 140 34866ft 490kts
08-Jun-17 08:43 26.772667 -82.441149 140 34866ft 490kts
08-Jun-17 08:44 26.772667 -82.441149 140 34866ft 490kts
08-Jun-17 08:45 26.772667 -82.441149 140 34866ft 490kts
08-Jun-17 08:46 26.772667 -82.441149 140 34866ft 490kts
08-Jun-17 08:47 26.772667 -82.441149 140 34866ft 490kts
08-Jun-17 08:48 26.772667 -82.441149 140 34866ft 490kts
08-Jun-17 08:49 26.772667 -82.441149 140 34866ft 490kts
08-Jun-17 08:50 26.772667 -82.441149 140 34866ft 490kts
08-Jun-17 08:51 26.772667 -82.441149 140 34866ft 490kts
08-Jun-17 08:52 26.772667 -82.441149 140 34866ft 490kts
08-Jun-17 08:53 26.772667 -82.441149 140 34866ft 490kts
08-Jun-17 08:54 26.772667 -82.441149 140 34866ft 490kts
08-Jun-17 08:55 26.772667 -82.441149 140 34866ft 490kts
08-Jun-17 08:56 26.772667 -82.441149 140 34866ft 490kts
08-Jun-17 08:57 26.772667 -82.441149 140 34866ft 490kts
08-Jun-17 08:58 26.772667 -82.441149 140 34866ft 490kts
08-Jun-17 08:59 26.772667 -82.441149 140 34866ft 490kts
08-Jun-17 09:00 26.772667 -82.441149 140 34866ft 490kts
08-Jun-17 09:01 26.772667 -82.441149 140 34866ft 490kts
08-Jun-17 09:02 26.772667 -82.441149 140 34866ft 490kts
08-Jun-17 09:03 26.772667 -82.441149 140 34866ft 490kts
08-Jun-17 09:04 26.772667 -82.441149 140 34866ft 490kts
08-Jun-17 09:05 26.772667 -82.441149 140 34866ft 490kts
08-Jun-17 09:06 26.772667 -82.441149 140 34866ft 490kts
08-Jun-17 09:07 26.772667 -82.441149 140 34866ft 490kts
08-Jun-17 09:08 26.772667 -82.441149 140 34866ft 490kts
08-Jun-17 09:09 26.772667 -82.441149 140 34866ft 490kts
08-Jun-17 09:10 26.772667 -82.441149 140 34866ft 490kts
08-Jun-17 09:11 26.772667 -82.441149 140 34866ft 490kts
08-Jun-17 09:12 26.772667 -82.441149 140 34866ft 490kts
08-Jun-17 09:13 26.772667 -82.441149 140 34866ft 490kts
08-Jun-17 09:14 26.772667 -82.441149 140 34866ft 490kts
08-Jun-17 09:15 26.772667 -82.441149 140 34866ft 490kts
08-Jun-17 09:16 26.772667 -82.441149 140 34866ft 490kts
08-Jun-17 09:17 26.772667 -82.441149 140 34866ft 490kts
08-Jun-17 09:18 26.772667 -82.441149 140 34866ft 490kts
08-Jun-17 09:19 26.772667 -82.441149 140 34866ft 490kts
08-Jun-17 09:20 26.772667 -82.441149 140 34866ft 490kts
08-Jun-17 09:21 26.772667 -82.441149 140 34866ft 490kts
08-Jun-17 09:22 26.772667 -82.441149 140 34866ft 490kts
08-Jun-17 09:23 26.772667 -82.441149 140 34866ft 490kts
08-Jun-17 09:24 26.772667 -82.441149 140 34866ft 490kts
08-Jun-17 09:25 26.772667 -82.441149 140 34866ft 490kts
08-Jun-17 09:26 26.772667 -82.441149 140 34866ft 490kts
08-Jun-17 09:27 26.772667 -82.441149 140 34866ft 490kts
08-Jun-17 09:28 26.772667 -82.441149 140 34866ft 490kts
08-Jun-17 09:29 26.772667 -82.441149 140 34866ft 490kts
08-Jun-17 09:30 26.772667 -82.441149 140 34866ft 490kts
08-Jun-17 09:31 26.772667 -82.441149 140 34866ft 490kts
08-Jun-17 09:32 26.772667 -82.441149 140 34866ft 490kts
08-Jun-17 09:33 26.772667 -82.441149 140 34866ft 490kts
08-Jun-17 09:34 26.772667 -82.441149 140 34866ft 490kts
08-Jun-17 09:35 26.772667 -82.441149 140 34866ft 490kts
08-Jun-17 09:36 26.772667 -82.441149 140 34866ft 490kts
08-Jun-17 09:37 26.772667 -82.441149 140 34866ft 490kts
08-Jun-17 09:38 26.772667 -82.441149 140 34866ft 490kts
08-Jun-17 09:39 26.772667 -82.441149 140 34866ft 490kts
08-Jun-17 09:40 26.772667 -82.441149 140 34866ft 490kts
08-Jun-17 09:41 26.772667 -82.441149 140 34866ft 490kts
08-Jun-17 09:42 26.772667 -82.441149 140 34866ft 490kts
08-Jun-17 09:43 26.772667 -82.441149 140 34866ft 490kts
08-Jun-17 09:44 26.772667 -82.441149 140 34866ft 490kts
08-Jun-17 09:45 26.772667 -82.441149 140 34866ft 490kts
08-Jun-17 09:46 26.772667 -82.441149 140 34866ft 490kts
08-Jun-17 09:47 26.772667 -82.441149 140 34866ft 490kts
08-Jun-17 09:48 26.772667 -82.441149 140 34866ft 490kts
08-Jun-17 09:49 26.772667 -82.441149 140 34866ft 490kts
08-Jun-17 09:50 26.772667 -82.441149 140 34866ft 490kts
08-Jun-17 09:51 26.772667 -82.441149 140 34866ft 490kts
08-Jun-17 09:52 26.772667 -82.441149 140 34866ft 490kts
08-Jun-17 09:53 26.772667 -82.441149 140 34866ft 490kts
08-Jun-17 09:54 26.772667 -82.441149 140 34866ft 490kts
08-Jun-17 09:55 26.772667 -82.441149 140 34866ft 490kts
08-Jun-17 09:56 26.772667 -82.441149 140 34866ft 490kts
08-Jun-17 09:57 26.772667 -82.441149 140 34866ft 490kts
08-Jun-17 09:58 26.772667 -82.441149 140 34866ft 490kts
08-Jun-17 09:59 26.772667 -82.441149 140 34866ft 490kts
08-Jun-17 10:00 26.772667 -82.441149 140 34866ft 490kts
08-Jun-17 10:01 26.772667 -82.441149 140 34866ft 490kts
08-Jun-17 10:02 26.772667 -82.441149 140 34866ft 490kts
08-Jun-17 10:03 26.772667 -82.441149 140 34866ft 490kts
08-Jun-17 10:04 26.772667 -82.441149 140 34866ft 490kts
08-Jun-17 10:05 26.772667 -82.441149 140 34866ft 490kts
08-Jun-17 10:06 26.772667 -82.441149 140 34866ft 490kts
08-Jun-17 10:07 26.772667 -82.441149 140 34866ft 490kts
08-Jun-17 10:08 26.772667 -82.441149 140 34866ft 490kts
08-Jun-17 10:09 26.772667 -82.441149 140 34866ft 490kts
08-Jun-17 10:10 26.772667 -82.441149 140 34866ft 490kts
08-Jun-17 10:11 26.772667 -82.441149 140 34866ft 490kts
08-Jun-17 10:12 26.772667 -82.441149 140 34866ft 490kts
08-Jun-17 10:13 26.772667 -82.441149 140 34866ft 490kts
08-Jun-17 10:14 26.772667 -82.441149 140 34866ft 490kts
08-Jun-17 10:15 26.772667 -82.441149 140 34866ft 490kts
08-Jun-17 10:16 26.772667 -82.441149 140 34866ft 490kts
08-Jun-17 10:17 26.772667 -82.441149 140 34866ft 490kts
08-Jun-17 10:18 26.772667 -82.441149 140 34866ft 490kts
08-Jun-17 10:19 26.772667 -82.441149 140 34866ft 490kts
08-Jun-17 10:20 26.772667 -82.441149 140 34866ft 490kts
08-Jun-17 10:21 26.772667 -82.441149 140 34866ft 490kts
08-Jun-17 10:22 26.772667 -82.441149 140 34866ft 490kts
08-Jun-17 10:23 26.772667 -82.441149 140 34866ft 490kts
08-Jun-17 10:24 26.772667 -82.441149 140 34866ft 490kts
08-Jun-17 10:25 26.772667 -82.441149 140 34866ft 490kts
08-Jun-17 10:26 26.772667 -82.441149 140 34866ft 490kts
08-Jun-17 10:27 26.772667 -82.441149 140 34866ft 490kts
08-Jun-17 10:28 26.772667 -82.441149 140 34866ft 490kts
08-Jun-17 10:29 26.772667 -82.441149 140 34866ft 490kts
08-Jun-17 10:30 26.772667 -82.441149 140 34866ft 490kts
08-Jun-17 10:31 26.772667 -82.441149 140 34866ft 490kts
08-Jun-17 10:32 26.772667 -82.441149 140 34866ft 490kts
08-Jun-17 10:33 26.772667 -82.441149 140 34866ft 490kts
08-Jun-17 10:34 26.772667 -82.441149 140 34866ft 490kts
08-Jun-17 10:35 26.772667 -82.441149 140 34866ft 490kts
08-Jun-17 10:36 26.772667 -82.441149 140 34866ft 490kts
08-Jun-17 10:37 26.772667 -82.441149 140 34866ft 490kts
08-Jun-17 10:38 26.772667 -82.441149 140 34866ft 490kts
08-Jun-17 10:39 26.772667 -82.441149 140 34866ft 490kts
08-Jun-17 10:40 26.772667 -82.441149 140 34866ft 490kts
08-Jun-17 10:41 26.772667 -82.441149 140 34866ft 490kts
08-Jun-17 10:42 26.772667 -82.441149 140 34866ft 490kts
08-Jun-17 10:43 26.772667 -82.441149 140 34866ft 490kts
08-Jun-17 10:44 26.772667 -82.441149 140 34866ft 490kts
08-Jun-17 10:45 26.772667 -82.441149 140 34866ft 490kts
08-Jun-17 10:46 26.772667 -82.441149 140 34866ft 490kts
08-Jun-17 10:47 26.772667 -82.441149 140 34866ft 490kts
08-Jun-17 10:48 26.772667 -82.441149 140 34866ft 490kts
08-Jun-17 10:49 26.772667 -82.441149 140 34866ft 490kts
08-Jun-17 10:50 26.772667 -82.441149 140 34866ft 490kts
08-Jun-17 10:51 26.772667 -82.441149 140 34866ft 490kts
08-Jun-17 10:52 26.772667 -82.441149 140 34866ft 490kts
08-Jun-17 10:53 26.772667 -82.441149 140 34866ft 490kts
08-Jun-17 10:54 26.772667 -82.441149 140 34866ft 490kts
08-Jun-17 10:55 26.772667 -82.441149 140 34866ft 490kts
08-Jun-17 10:56 26.772667 -82.441149 140 34866ft 490kts
08-Jun-17 10:57 26.772667 -82.441149 140 34866ft 490kts
08-Jun-17 10:58 26.772667 -82.441149 140 34866ft 490kts
08-Jun-17 10:59 26.772667 -82.441149 140 34866ft 490kts
08-Jun-17 11:00 26.772667 -82.441149 140 34866ft 490kts
08-Jun-17 11:01 26.772667 -82.441149 140 34866ft 490kts
08-Jun-17 11:02 26.772667 -82.441149 140 34866ft 490kts
08-Jun-17 11:03 26.772667 -82.441149 140 34866ft 490kts
08-Jun-17 11:04 26.772667 -82.441149 140 34866ft 490kts
08-Jun-17 11:05 26.772667 -82.441149 140 34866ft 490kts
08-Jun-17 11:06 26.772667 -82.441149 140 34866ft 490kts
08-Jun-17 11:07 26.772667 -82.441149 140 34866ft 490kts
08-Jun-17 11:08 26.772667 -82.441149 140 34866ft 490kts
08-Jun-17 11:09 26.772667 -82.441149 140 34866ft 490kts
08-Jun-17 11:10 26.772667 -82.441149 140 34866ft 490kts
08-Jun-17 11:11 26.772667 -82.441149 140 34866ft 490kts
08-Jun-17 11:12 26.772667 -82.441149 140 34866ft 490kts
08-Jun-17 11:13 26.772667 -82.441149 140 34866ft 490kts
08-Jun-17 11:14 26.772667 -82.441149 140 34866ft 490kts
08-Jun-17 11:15 26.772667 -82.441149 140 34866ft 490kts
08-Jun-17 11:16 26.772667 -82.441149 140 34866ft 490kts
08-Jun-17 11:17 26.772667 -82.441149 140 34866ft 490kts
08-Jun-17 11:18 26.772667 -82.441149 140 34866ft 490kts
08-Jun-17 11:19 26.772667 -82.441149 140 34866ft 490kts
08-Jun-17 11:20 26.751139 -82.417448 141 34900ft 487kts
08-Jun-17 11:21 26.677703 -82.336704 142 34608ft 456kts
08-Jun-17 11:22 26.595305 -82.246458 141 32440ft 461kts
08-Jun-17 11:23 26.502489 -82.147367 141 29919ft 466kts
08-Jun-17 11:24 26.409399 -82.048549 141 27899ft 457kts
08-Jun-17 11:25 26.319105 -81.952950 141 26102ft 445kts
08-Jun-17 11:26 26.231004 -81.859874 141 24418ft 431kts
08-Jun-17 11:27 26.151694 -81.762871 122 22608ft 431kts
08-Jun-17 11:28 26.109260 -81.639863 113 19897ft 418kts
08-Jun-17 11:29 26.071193 -81.521801 113 16190ft 398kts
08-Jun-17 11:30 26.034615 -81.408478 113 13897ft 390kts
08-Jun-17 11:31 25.998025 -81.295396 114 11971ft 391kts
08-Jun-17 11:32 25.962532 -81.186029 114 10788ft 354kts
08-Jun-17 11:33 25.933647 -81.097481 115 9879ft 282kts
08-Jun-17 11:34 25.906446 -81.014495 115 8733ft 288kts
08-Jun-17 11:35 25.883415 -80.930010 107 7895ft 283kts
08-Jun-17 11:36 25.866819 -80.848757 108 7293ft 265kts
08-Jun-17 11:37 25.854230 -80.767934 104 6263ft 264kts
08-Jun-17 11:38 25.837393 -80.689873 113 5271ft 257kts
08-Jun-17 11:39 25.808666 -80.619594 121 4464ft 245kts
08-Jun-17 11:40 25.792684 -80.547135 91 3545ft 254kts
08-Jun-17 11:41 25.795833 -80.473124 92 3089ft 200kts
08-Jun-17 11:42 25.798187 -80.416526 92 2392ft 164kts
08-Jun-17 11:43 25.800276 -80.365539 94 1055ft 157kts
08-Jun-17 11:44 25.802328 -80.317590 92 353ft 161kts
08-Jun-17 11:45 25.803733 -80.281121 86 17ft 22kts
08-Jun-17 11:46 25.801348 -80.279560 177 17ft 15kts
08-Jun-17 11:47 25.797895 -80.278923 177 17ft 11kts

Navigation Log

Ident Type
Flight plan parsing failed, navigation log unavailable